createdAt,value
2018-07-22T00:01:02.848Z,469
2018-07-22T00:02:10.059Z,467
2018-07-22T00:03:17.270Z,465
2018-07-22T00:04:24.481Z,461
2018-07-22T00:05:31.691Z,466
2018-07-22T00:06:38.903Z,463
2018-07-22T00:07:46.118Z,445
2018-07-22T00:08:53.330Z,445
2018-07-22T00:10:00.543Z,448
2018-07-22T00:11:07.749Z,454
2018-07-22T00:12:14.680Z,460
2018-07-22T00:13:21.892Z,448
2018-07-22T00:14:29.106Z,450
2018-07-22T00:15:36.314Z,443
2018-07-22T00:16:43.522Z,442
2018-07-22T00:17:50.733Z,437
2018-07-22T00:18:57.943Z,437
2018-07-22T00:20:05.156Z,441
2018-07-22T00:21:12.371Z,442
2018-07-22T00:22:19.586Z,438
2018-07-22T00:23:26.795Z,443
2018-07-22T00:24:34.005Z,449
2018-07-22T00:25:41.221Z,447
2018-07-22T00:26:48.430Z,447
2018-07-22T00:27:55.641Z,445
2018-07-22T00:29:02.864Z,446
2018-07-22T00:30:10.072Z,447
2018-07-22T00:31:17.278Z,455
2018-07-22T00:32:24.496Z,457
2018-07-22T00:33:31.702Z,453
2018-07-22T00:34:38.910Z,452
2018-07-22T00:35:46.121Z,452
2018-07-22T00:36:53.335Z,456
2018-07-22T00:38:00.551Z,451
2018-07-22T00:39:07.764Z,448
2018-07-22T00:40:14.701Z,450
2018-07-22T00:41:21.911Z,448
2018-07-22T00:42:29.127Z,447
2018-07-22T00:43:36.333Z,452
2018-07-22T00:44:43.281Z,455
2018-07-22T00:45:50.491Z,453
2018-07-22T00:46:57.711Z,450
2018-07-22T00:48:04.916Z,448
2018-07-22T00:49:12.127Z,452
2018-07-22T00:50:19.339Z,452
2018-07-22T00:51:26.275Z,450
2018-07-22T00:52:33.486Z,451
2018-07-22T00:53:40.698Z,453
2018-07-22T00:54:47.905Z,453
2018-07-22T00:55:55.122Z,453
2018-07-22T00:57:02.334Z,453
2018-07-22T00:58:09.548Z,456
2018-07-22T00:59:16.769Z,453
2018-07-22T01:00:23.984Z,458
2018-07-22T01:01:31.215Z,457
2018-07-22T01:02:37.876Z,460
2018-07-22T01:03:44.814Z,461
2018-07-22T01:04:51.751Z,463
2018-07-22T01:05:58.963Z,461
2018-07-22T01:07:05.626Z,460
2018-07-22T01:08:12.837Z,462
2018-07-22T01:09:20.047Z,464
2018-07-22T01:10:27.260Z,466
2018-07-22T01:11:34.468Z,465
2018-07-22T01:12:41.682Z,467
2018-07-22T01:13:48.899Z,466
2018-07-22T01:14:56.108Z,470
2018-07-22T01:16:03.315Z,470
2018-07-22T01:17:10.523Z,470
2018-07-22T01:18:17.433Z,474
2018-07-22T01:19:24.658Z,473
2018-07-22T01:20:31.870Z,472
2018-07-22T01:21:39.083Z,474
2018-07-22T01:22:46.233Z,477
2018-07-22T01:23:53.444Z,477
2018-07-22T01:25:00.656Z,477
2018-07-22T01:26:07.866Z,479
2018-07-22T01:27:14.803Z,481
2018-07-22T01:28:22.011Z,482
2018-07-22T01:29:29.237Z,484
2018-07-22T01:30:36.446Z,484
2018-07-22T01:31:43.653Z,485
2018-07-22T01:32:50.876Z,487
2018-07-22T01:33:58.086Z,488
2018-07-22T01:35:05.298Z,490
2018-07-22T01:36:12.517Z,491
2018-07-22T01:37:19.733Z,491
2018-07-22T01:38:26.942Z,491
2018-07-22T01:39:34.157Z,492
2018-07-22T01:40:41.096Z,492
2018-07-22T01:41:48.307Z,493
2018-07-22T01:42:55.241Z,493
2018-07-22T01:44:02.453Z,493
2018-07-22T01:45:09.662Z,495
2018-07-22T01:46:16.877Z,495
2018-07-22T01:47:23.817Z,495
2018-07-22T01:48:31.031Z,496
2018-07-22T01:49:38.239Z,497
2018-07-22T01:50:45.454Z,497
2018-07-22T01:51:52.686Z,497
2018-07-22T01:52:59.896Z,498
2018-07-22T01:54:06.831Z,498
2018-07-22T01:55:14.045Z,499
2018-07-22T01:56:21.252Z,499
2018-07-22T01:57:28.184Z,500
2018-07-22T01:58:35.395Z,499
2018-07-22T01:59:42.608Z,500
2018-07-22T02:00:49.823Z,501
2018-07-22T02:01:56.817Z,501
2018-07-22T02:03:04.032Z,501
2018-07-22T02:04:11.237Z,501
2018-07-22T02:05:18.171Z,501
2018-07-22T02:06:25.381Z,501
2018-07-22T02:07:32.592Z,502
2018-07-22T02:08:39.810Z,502
2018-07-22T02:09:47.017Z,502
2018-07-22T02:10:54.229Z,503
2018-07-22T02:12:01.439Z,504
2018-07-22T02:13:08.376Z,504
2018-07-22T02:14:15.624Z,505
2018-07-22T02:15:22.860Z,506
2018-07-22T02:16:30.067Z,506
2018-07-22T02:17:37.279Z,507
2018-07-22T02:18:44.485Z,507
2018-07-22T02:19:51.695Z,508
2018-07-22T02:20:59.011Z,508
2018-07-22T02:22:06.215Z,508
2018-07-22T02:23:13.424Z,509
2018-07-22T02:24:20.634Z,510
2018-07-22T02:25:27.617Z,510
2018-07-22T02:26:34.827Z,510
2018-07-22T02:27:42.038Z,510
2018-07-22T02:28:49.248Z,510
2018-07-22T02:29:56.196Z,510
2018-07-22T02:31:03.403Z,510
2018-07-22T02:32:10.617Z,510
2018-07-22T02:33:17.548Z,510
2018-07-22T02:34:24.771Z,510
2018-07-22T02:35:31.979Z,511
2018-07-22T02:36:39.205Z,511
2018-07-22T02:37:46.415Z,511
2018-07-22T02:38:53.626Z,511
2018-07-22T02:40:00.560Z,510
2018-07-22T02:41:07.768Z,510
2018-07-22T02:42:14.974Z,510
2018-07-22T02:43:22.185Z,509
2018-07-22T02:44:29.120Z,509
2018-07-22T02:45:36.348Z,509
2018-07-22T02:46:43.276Z,509
2018-07-22T02:47:50.488Z,510
2018-07-22T02:48:57.701Z,509
2018-07-22T02:50:04.640Z,509
2018-07-22T02:51:11.855Z,509
2018-07-22T02:52:19.062Z,508
2018-07-22T02:53:26.273Z,509
2018-07-22T02:54:33.479Z,509
2018-07-22T02:55:40.697Z,509
2018-07-22T02:56:47.907Z,509
2018-07-22T02:57:55.122Z,509
2018-07-22T02:59:02.333Z,509
2018-07-22T03:00:09.543Z,509
2018-07-22T03:01:16.495Z,510
2018-07-22T03:02:23.697Z,510
2018-07-22T03:03:31.147Z,510
2018-07-22T03:04:38.436Z,510
2018-07-22T03:05:45.646Z,510
2018-07-22T03:06:52.856Z,511
2018-07-22T03:08:00.068Z,510
2018-07-22T03:09:07.278Z,512
2018-07-22T03:10:14.493Z,512
2018-07-22T03:11:21.704Z,512
2018-07-22T03:12:28.922Z,511
2018-07-22T03:13:36.143Z,511
2018-07-22T03:14:43.358Z,512
2018-07-22T03:15:50.569Z,513
2018-07-22T03:16:57.777Z,512
2018-07-22T03:18:04.988Z,512
2018-07-22T03:19:12.199Z,512
2018-07-22T03:20:19.404Z,512
2018-07-22T03:21:26.621Z,512
2018-07-22T03:22:33.829Z,513
2018-07-22T03:23:41.040Z,513
2018-07-22T03:24:48.248Z,513
2018-07-22T03:25:55.459Z,514
2018-07-22T03:27:02.671Z,514
2018-07-22T03:28:09.883Z,514
2018-07-22T03:29:17.095Z,515
2018-07-22T03:30:24.304Z,516
2018-07-22T03:31:31.516Z,516
2018-07-22T03:32:38.464Z,516
2018-07-22T03:33:45.678Z,517
2018-07-22T03:34:52.891Z,517
2018-07-22T03:36:00.101Z,518
2018-07-22T03:37:07.317Z,518
2018-07-22T03:38:14.537Z,519
2018-07-22T03:39:21.739Z,520
2018-07-22T03:40:28.949Z,519
2018-07-22T03:41:36.155Z,519
2018-07-22T03:42:43.367Z,520
2018-07-22T03:43:50.578Z,520
2018-07-22T03:44:57.791Z,521
2018-07-22T03:46:05.002Z,520
2018-07-22T03:47:12.210Z,520
2018-07-22T03:48:19.423Z,520
2018-07-22T03:49:26.675Z,521
2018-07-22T03:50:33.886Z,521
2018-07-22T03:51:41.098Z,522
2018-07-22T03:52:48.033Z,522
2018-07-22T03:53:55.239Z,523
2018-07-22T03:55:02.450Z,523
2018-07-22T03:56:09.382Z,524
2018-07-22T03:57:16.595Z,530
2018-07-22T03:58:23.535Z,530
2018-07-22T03:59:30.747Z,530
2018-07-22T04:00:37.955Z,531
2018-07-22T04:01:45.171Z,539
2018-07-22T04:02:52.373Z,545
2018-07-22T04:03:59.586Z,545
2018-07-22T04:05:06.795Z,536
2018-07-22T04:06:14.005Z,536
2018-07-22T04:07:21.220Z,536
2018-07-22T04:08:28.430Z,543
2018-07-22T04:09:35.637Z,541
2018-07-22T04:10:42.851Z,541
2018-07-22T04:11:50.064Z,540
2018-07-22T04:12:57.273Z,543
2018-07-22T04:14:04.490Z,538
2018-07-22T04:15:11.428Z,537
2018-07-22T04:16:18.640Z,539
2018-07-22T04:17:25.849Z,540
2018-07-22T04:18:33.063Z,540
2018-07-22T04:19:40.273Z,539
2018-07-22T04:20:47.486Z,541
2018-07-22T04:21:54.699Z,541
2018-07-22T04:23:01.912Z,544
2018-07-22T04:24:09.155Z,544
2018-07-22T04:25:16.367Z,543
2018-07-22T04:26:23.573Z,543
2018-07-22T04:27:30.782Z,544
2018-07-22T04:28:37.991Z,545
2018-07-22T04:29:45.203Z,545
2018-07-22T04:30:52.410Z,546
2018-07-22T04:31:59.622Z,552
2018-07-22T04:33:06.833Z,552
2018-07-22T04:34:14.040Z,553
2018-07-22T04:35:21.250Z,550
2018-07-22T04:36:28.460Z,550
2018-07-22T04:37:35.398Z,549
2018-07-22T04:38:42.610Z,549
2018-07-22T04:39:49.817Z,549
2018-07-22T04:40:57.280Z,550
2018-07-22T04:42:04.527Z,548
2018-07-22T04:43:11.737Z,548
2018-07-22T04:44:18.950Z,551
2018-07-22T04:45:26.160Z,551
2018-07-22T04:46:33.374Z,550
2018-07-22T04:47:40.585Z,550
2018-07-22T04:48:47.800Z,550
2018-07-22T04:49:54.744Z,550
2018-07-22T04:51:01.953Z,549
2018-07-22T04:52:09.168Z,549
2018-07-22T04:53:16.377Z,549
2018-07-22T04:54:23.594Z,549
2018-07-22T04:55:30.538Z,547
2018-07-22T04:56:37.781Z,547
2018-07-22T04:57:44.987Z,548
2018-07-22T04:58:51.648Z,546
2018-07-22T04:59:58.857Z,544
2018-07-22T05:01:05.801Z,542
2018-07-22T05:02:13.011Z,543
2018-07-22T05:03:20.243Z,539
2018-07-22T05:04:27.456Z,542
2018-07-22T05:05:34.667Z,542
2018-07-22T05:06:41.878Z,544
2018-07-22T05:07:48.819Z,545
2018-07-22T05:08:56.033Z,545
2018-07-22T05:10:03.242Z,544
2018-07-22T05:11:10.473Z,542
2018-07-22T05:12:17.684Z,542
2018-07-22T05:13:24.894Z,545
2018-07-22T05:14:32.101Z,548
2018-07-22T05:15:39.315Z,548
2018-07-22T05:16:46.527Z,552
2018-07-22T05:17:53.741Z,553
2018-07-22T05:19:00.952Z,555
2018-07-22T05:20:07.890Z,555
2018-07-22T05:21:15.098Z,556
2018-07-22T05:22:22.307Z,557
2018-07-22T05:23:29.521Z,555
2018-07-22T05:24:36.737Z,555
2018-07-22T05:25:43.945Z,555
2018-07-22T05:26:51.172Z,556
2018-07-22T05:27:58.386Z,556
2018-07-22T05:29:05.597Z,558
2018-07-22T05:30:12.529Z,561
2018-07-22T05:31:19.740Z,562
2018-07-22T05:32:26.949Z,562
2018-07-22T05:33:34.157Z,564
2018-07-22T05:34:41.370Z,563
2018-07-22T05:35:48.607Z,561
2018-07-22T05:36:55.823Z,561
2018-07-22T05:38:03.050Z,560
2018-07-22T05:39:10.266Z,560
2018-07-22T05:40:17.471Z,559
2018-07-22T05:41:24.677Z,560
2018-07-22T05:42:31.887Z,559
2018-07-22T05:43:38.833Z,561
2018-07-22T05:44:45.756Z,563
2018-07-22T05:45:52.968Z,564
2018-07-22T05:47:00.179Z,564
2018-07-22T05:48:07.395Z,563
2018-07-22T05:49:14.605Z,562
2018-07-22T05:50:21.816Z,562
2018-07-22T05:51:29.027Z,562
2018-07-22T05:52:36.280Z,563
2018-07-22T05:53:43.494Z,562
2018-07-22T05:54:50.703Z,562
2018-07-22T05:55:57.635Z,562
2018-07-22T05:57:04.583Z,563
2018-07-22T05:58:11.796Z,562
2018-07-22T05:59:19.009Z,560
2018-07-22T06:00:26.224Z,561
2018-07-22T06:01:33.443Z,560
2018-07-22T06:02:40.658Z,568
2018-07-22T06:03:47.873Z,575
2018-07-22T06:04:55.084Z,582
2018-07-22T06:06:02.051Z,562
2018-07-22T06:07:08.989Z,565
2018-07-22T06:08:16.202Z,557
2018-07-22T06:09:23.421Z,547
2018-07-22T06:10:30.635Z,538
2018-07-22T06:11:37.303Z,541
2018-07-22T06:12:44.511Z,542
2018-07-22T06:13:51.726Z,544
2018-07-22T06:14:58.936Z,540
2018-07-22T06:16:06.153Z,513
2018-07-22T06:17:13.363Z,513
2018-07-22T06:18:20.575Z,496
2018-07-22T06:19:27.523Z,512
2018-07-22T06:20:34.736Z,515
2018-07-22T06:21:41.680Z,515
2018-07-22T06:22:48.891Z,515
2018-07-22T06:23:56.101Z,522
2018-07-22T06:25:03.312Z,530
2018-07-22T06:26:10.246Z,541
2018-07-22T06:27:17.458Z,547
2018-07-22T06:28:24.667Z,545
2018-07-22T06:29:31.877Z,537
2018-07-22T06:30:39.087Z,526
2018-07-22T06:31:46.301Z,540
2018-07-22T06:32:53.509Z,544
2018-07-22T06:34:00.726Z,545
2018-07-22T06:35:07.999Z,550
2018-07-22T06:36:15.246Z,552
2018-07-22T06:37:22.456Z,551
2018-07-22T06:38:29.669Z,542
2018-07-22T06:39:36.879Z,534
2018-07-22T06:40:44.100Z,535
2018-07-22T06:41:51.319Z,536
2018-07-22T06:42:58.746Z,539
2018-07-22T06:44:05.955Z,539
2018-07-22T06:45:13.171Z,540
2018-07-22T06:46:20.111Z,539
2018-07-22T06:47:27.324Z,539
2018-07-22T06:48:34.258Z,535
2018-07-22T06:49:41.474Z,535
2018-07-22T06:50:48.701Z,525
2018-07-22T06:51:55.896Z,522
2018-07-22T06:53:03.108Z,523
2018-07-22T06:54:10.319Z,523
2018-07-22T06:55:17.529Z,524
2018-07-22T06:56:24.742Z,523
2018-07-22T06:57:31.948Z,523
2018-07-22T06:58:39.162Z,522
2018-07-22T06:59:46.376Z,524
2018-07-22T07:00:53.432Z,523
2018-07-22T07:02:00.693Z,522
2018-07-22T07:03:07.902Z,523
2018-07-22T07:04:15.115Z,522
2018-07-22T07:05:22.372Z,523
2018-07-22T07:06:29.671Z,530
2018-07-22T07:07:36.879Z,526
2018-07-22T07:08:43.816Z,525
2018-07-22T07:09:51.028Z,524
2018-07-22T07:10:58.226Z,524
2018-07-22T07:12:05.551Z,523
2018-07-22T07:13:12.769Z,524
2018-07-22T07:14:19.979Z,523
2018-07-22T07:15:26.642Z,524
2018-07-22T07:16:33.857Z,523
2018-07-22T07:17:40.798Z,522
2018-07-22T07:18:48.038Z,522
2018-07-22T07:19:55.244Z,523
2018-07-22T07:21:02.185Z,522
2018-07-22T07:22:09.118Z,522
2018-07-22T07:23:16.332Z,521
2018-07-22T07:24:23.542Z,521
2018-07-22T07:25:30.757Z,520
2018-07-22T07:26:38.137Z,521
2018-07-22T07:27:45.392Z,520
2018-07-22T07:28:52.605Z,521
2018-07-22T07:29:59.824Z,521
2018-07-22T07:31:07.034Z,521
2018-07-22T07:32:13.970Z,521
2018-07-22T07:33:21.183Z,520
2018-07-22T07:34:28.503Z,521
2018-07-22T07:35:35.717Z,522
2018-07-22T07:36:42.926Z,522
2018-07-22T07:37:49.863Z,522
2018-07-22T07:38:56.798Z,522
2018-07-22T07:40:04.009Z,522
2018-07-22T07:41:10.947Z,522
2018-07-22T07:42:18.273Z,522
2018-07-22T07:43:25.495Z,523
2018-07-22T07:44:32.434Z,523
2018-07-22T07:45:39.376Z,524
2018-07-22T07:46:46.600Z,524
2018-07-22T07:47:53.807Z,525
2018-07-22T07:49:01.019Z,525
2018-07-22T07:50:08.232Z,526
2018-07-22T07:51:15.453Z,526
2018-07-22T07:52:22.383Z,527
2018-07-22T07:53:29.862Z,527
2018-07-22T07:54:37.144Z,527
2018-07-22T07:55:44.356Z,527
2018-07-22T07:56:51.574Z,528
2018-07-22T07:57:58.784Z,528
2018-07-22T07:59:05.995Z,529
2018-07-22T08:00:13.207Z,529
2018-07-22T08:01:20.416Z,530
2018-07-22T08:02:27.361Z,529
2018-07-22T08:03:34.570Z,529
2018-07-22T08:04:41.786Z,528
2018-07-22T08:05:48.998Z,528
2018-07-22T08:06:56.209Z,528
2018-07-22T08:08:03.421Z,528
2018-07-22T08:09:10.631Z,529
2018-07-22T08:10:17.568Z,529
2018-07-22T08:11:24.785Z,529
2018-07-22T08:12:32.021Z,529
2018-07-22T08:13:38.962Z,529
2018-07-22T08:14:46.174Z,530
2018-07-22T08:15:53.382Z,530
2018-07-22T08:17:00.595Z,530
2018-07-22T08:18:07.810Z,530
2018-07-22T08:19:15.331Z,529
2018-07-22T08:20:22.758Z,529
2018-07-22T08:21:30.226Z,529
2018-07-22T08:22:37.489Z,529
2018-07-22T08:23:44.701Z,528
2018-07-22T08:24:51.645Z,527
2018-07-22T08:25:58.879Z,528
2018-07-22T08:27:06.118Z,528
2018-07-22T08:28:13.354Z,528
2018-07-22T08:29:20.569Z,528
2018-07-22T08:30:27.911Z,528
2018-07-22T08:31:35.140Z,528
2018-07-22T08:32:42.099Z,529
2018-07-22T08:33:49.309Z,530
2018-07-22T08:34:56.519Z,529
2018-07-22T08:36:03.735Z,529
2018-07-22T08:37:10.948Z,538
2018-07-22T08:38:18.167Z,535
2018-07-22T08:39:25.394Z,536
2018-07-22T08:40:32.334Z,536
2018-07-22T08:41:39.953Z,550
2018-07-22T08:42:47.217Z,552
2018-07-22T08:43:54.427Z,544
2018-07-22T08:45:01.642Z,530
2018-07-22T08:46:08.856Z,523
2018-07-22T08:47:15.797Z,529
2018-07-22T08:48:23.029Z,534
2018-07-22T08:49:30.246Z,497
2018-07-22T08:50:37.177Z,508
2018-07-22T08:51:44.391Z,510
2018-07-22T08:52:51.605Z,492
2018-07-22T08:53:58.812Z,499
2018-07-22T08:55:05.756Z,490
2018-07-22T08:56:12.965Z,496
2018-07-22T08:57:20.179Z,506
2018-07-22T08:58:27.392Z,510
2018-07-22T08:59:34.611Z,487
2018-07-22T09:00:41.818Z,487
2018-07-22T09:01:49.028Z,485
2018-07-22T09:02:56.244Z,497
2018-07-22T09:04:03.453Z,508
2018-07-22T09:05:10.669Z,514
2018-07-22T09:06:17.884Z,500
2018-07-22T09:07:25.090Z,503
2018-07-22T09:08:32.301Z,508
2018-07-22T09:09:39.512Z,506
2018-07-22T09:10:46.723Z,509
2018-07-22T09:11:54.063Z,514
2018-07-22T09:13:01.274Z,520
2018-07-22T09:14:08.214Z,517
2018-07-22T09:15:15.421Z,517
2018-07-22T09:16:22.638Z,518
2018-07-22T09:17:29.851Z,518
2018-07-22T09:18:37.062Z,521
2018-07-22T09:19:44.271Z,524
2018-07-22T09:20:51.479Z,524
2018-07-22T09:21:58.693Z,526
2018-07-22T09:23:05.904Z,525
2018-07-22T09:24:13.115Z,524
2018-07-22T09:25:20.327Z,523
2018-07-22T09:26:27.268Z,520
2018-07-22T09:27:34.209Z,507
2018-07-22T09:28:41.421Z,505
2018-07-22T09:29:48.634Z,501
2018-07-22T09:30:55.847Z,502
2018-07-22T09:32:03.060Z,502
2018-07-22T09:33:10.276Z,503
2018-07-22T09:34:17.497Z,503
2018-07-22T09:35:24.714Z,502
2018-07-22T09:36:32.065Z,503
2018-07-22T09:37:39.342Z,501
2018-07-22T09:38:46.554Z,501
2018-07-22T09:39:53.769Z,500
2018-07-22T09:41:00.977Z,502
2018-07-22T09:42:08.196Z,502
2018-07-22T09:43:15.411Z,503
2018-07-22T09:44:22.355Z,502
2018-07-22T09:45:29.562Z,501
2018-07-22T09:46:36.778Z,502
2018-07-22T09:47:43.723Z,502
2018-07-22T09:48:50.935Z,501
2018-07-22T09:49:58.153Z,500
2018-07-22T09:51:05.081Z,500
2018-07-22T09:52:12.294Z,499
2018-07-22T09:53:19.506Z,500
2018-07-22T09:54:26.719Z,498
2018-07-22T09:55:33.939Z,499
2018-07-22T09:56:41.152Z,498
2018-07-22T09:57:48.366Z,498
2018-07-22T09:58:55.572Z,497
2018-07-22T10:00:02.516Z,497
2018-07-22T10:01:09.725Z,499
2018-07-22T10:02:16.938Z,498
2018-07-22T10:03:24.154Z,498
2018-07-22T10:04:31.647Z,498
2018-07-22T10:05:38.868Z,498
2018-07-22T10:06:46.084Z,498
2018-07-22T10:07:53.302Z,497
2018-07-22T10:09:00.230Z,497
2018-07-22T10:10:07.441Z,495
2018-07-22T10:11:14.847Z,494
2018-07-22T10:12:22.159Z,495
2018-07-22T10:13:29.368Z,495
2018-07-22T10:14:36.604Z,495
2018-07-22T10:15:43.955Z,495
2018-07-22T10:16:50.921Z,492
2018-07-22T10:17:58.131Z,492
2018-07-22T10:19:05.345Z,491
2018-07-22T10:20:12.563Z,490
2018-07-22T10:21:19.777Z,490
2018-07-22T10:22:26.990Z,491
2018-07-22T10:23:34.204Z,491
2018-07-22T10:24:41.440Z,491
2018-07-22T10:25:48.656Z,489
2018-07-22T10:26:55.898Z,489
2018-07-22T10:28:03.112Z,492
2018-07-22T10:29:10.329Z,493
2018-07-22T10:30:17.546Z,491
2018-07-22T10:31:24.761Z,490
2018-07-22T10:32:32.198Z,492
2018-07-22T10:33:39.412Z,489
2018-07-22T10:34:46.356Z,491
2018-07-22T10:35:53.700Z,489
2018-07-22T10:37:01.015Z,489
2018-07-22T10:38:08.240Z,491
2018-07-22T10:39:15.453Z,490
2018-07-22T10:40:22.668Z,490
2018-07-22T10:41:29.886Z,487
2018-07-22T10:42:37.099Z,484
2018-07-22T10:43:44.038Z,485
2018-07-22T10:44:51.248Z,483
2018-07-22T10:45:58.465Z,483
2018-07-22T10:47:05.701Z,484
2018-07-22T10:48:12.917Z,485
2018-07-22T10:49:20.130Z,485
2018-07-22T10:50:27.351Z,487
2018-07-22T10:51:34.564Z,490
2018-07-22T10:52:41.778Z,490
2018-07-22T10:53:48.988Z,488
2018-07-22T10:54:56.202Z,488
2018-07-22T10:56:03.415Z,488
2018-07-22T10:57:10.630Z,487
2018-07-22T10:58:17.843Z,486
2018-07-22T10:59:25.059Z,483
2018-07-22T11:00:32.001Z,481
2018-07-22T11:01:39.216Z,479
2018-07-22T11:02:46.432Z,478
2018-07-22T11:03:53.643Z,478
2018-07-22T11:05:00.860Z,477
2018-07-22T11:06:08.079Z,475
2018-07-22T11:07:15.297Z,474
2018-07-22T11:08:22.536Z,474
2018-07-22T11:09:29.469Z,475
2018-07-22T11:10:36.685Z,475
2018-07-22T11:11:43.898Z,477
2018-07-22T11:12:51.118Z,477
2018-07-22T11:13:58.337Z,477
2018-07-22T11:15:05.554Z,476
2018-07-22T11:16:12.766Z,474
2018-07-22T11:17:19.980Z,473
2018-07-22T11:18:27.185Z,472
2018-07-22T11:19:34.138Z,470
2018-07-22T11:20:41.368Z,472
2018-07-22T11:21:48.591Z,469
2018-07-22T11:22:55.809Z,471
2018-07-22T11:24:03.022Z,475
2018-07-22T11:25:10.270Z,478
2018-07-22T11:26:17.483Z,477
2018-07-22T11:27:24.702Z,477
2018-07-22T11:28:31.918Z,477
2018-07-22T11:29:38.906Z,477
2018-07-22T11:30:46.121Z,478
2018-07-22T11:31:53.336Z,479
2018-07-22T11:33:00.554Z,479
2018-07-22T11:34:07.768Z,478
2018-07-22T11:35:14.985Z,480
2018-07-22T11:36:22.198Z,480
2018-07-22T11:37:29.417Z,481
2018-07-22T11:38:36.645Z,481
2018-07-22T11:39:43.860Z,481
2018-07-22T11:40:50.803Z,480
2018-07-22T11:41:58.024Z,482
2018-07-22T11:43:05.244Z,481
2018-07-22T11:44:12.472Z,479
2018-07-22T11:45:19.429Z,480
2018-07-22T11:46:26.669Z,478
2018-07-22T11:47:33.898Z,478
2018-07-22T11:48:41.126Z,475
2018-07-22T11:49:48.079Z,472
2018-07-22T11:50:55.050Z,472
2018-07-22T11:52:02.274Z,471
2018-07-22T11:53:09.491Z,470
2018-07-22T11:54:16.431Z,470
2018-07-22T22:00:06.525Z,474
2018-07-22T22:01:13.742Z,487
2018-07-22T22:02:20.951Z,478
2018-07-22T22:03:28.162Z,475
2018-07-22T22:04:35.372Z,473
2018-07-22T22:05:42.577Z,472
2018-07-22T22:06:49.793Z,471
2018-07-22T22:07:56.999Z,471
2018-07-22T22:09:04.211Z,470
2018-07-22T22:10:11.147Z,469
2018-07-22T22:11:18.360Z,470
2018-07-22T22:12:25.574Z,469
2018-07-22T22:13:32.518Z,469
2018-07-22T22:14:39.731Z,469
2018-07-22T22:15:46.943Z,470
2018-07-22T22:16:54.155Z,469
2018-07-22T22:18:01.367Z,469
2018-07-22T22:19:08.579Z,469
2018-07-22T22:20:15.791Z,469
2018-07-22T22:21:23.003Z,469
2018-07-22T22:22:29.914Z,468
2018-07-22T22:23:37.121Z,468
2018-07-22T22:24:44.203Z,469
2018-07-22T22:25:51.233Z,469
2018-07-22T22:26:58.172Z,469
2018-07-22T22:28:05.384Z,470
2018-07-22T22:29:12.310Z,471
2018-07-22T22:30:19.527Z,472
2018-07-22T22:31:26.745Z,472
2018-07-22T22:32:33.692Z,474
2018-07-22T22:33:40.895Z,474
2018-07-22T22:34:48.103Z,472
2018-07-22T22:35:55.038Z,470
2018-07-22T22:37:02.251Z,470
2018-07-22T22:38:09.503Z,470
2018-07-22T22:39:16.705Z,471
2018-07-22T22:40:23.913Z,472
2018-07-22T22:41:31.128Z,475
2018-07-22T22:42:38.338Z,474
2018-07-22T22:43:45.553Z,463
2018-07-22T22:44:52.489Z,460
2018-07-22T22:45:59.699Z,460
2018-07-22T22:47:06.912Z,460
2018-07-22T22:48:14.124Z,458
2018-07-22T22:49:21.335Z,456
2018-07-22T22:50:28.548Z,457
2018-07-22T22:51:35.759Z,458
2018-07-22T22:52:42.971Z,458
2018-07-22T22:53:50.182Z,459
2018-07-22T22:54:57.422Z,459
2018-07-22T22:56:04.633Z,460
2018-07-22T22:57:11.840Z,460
2018-07-22T22:58:19.054Z,461
2018-07-22T22:59:25.993Z,460
2018-07-22T23:00:33.214Z,462
2018-07-22T23:01:40.422Z,462
2018-07-22T23:02:47.371Z,461
2018-07-22T23:03:54.298Z,461
2018-07-22T23:05:01.517Z,462
2018-07-22T23:06:08.723Z,462
2018-07-22T23:07:15.940Z,462
2018-07-22T23:08:23.200Z,462
2018-07-22T23:09:30.459Z,462
2018-07-22T23:10:37.677Z,463
2018-07-22T23:11:44.883Z,463
2018-07-22T23:12:51.824Z,462
2018-07-22T23:13:59.034Z,463
2018-07-22T23:15:06.247Z,463
2018-07-22T23:16:13.455Z,463
2018-07-22T23:17:20.672Z,463
2018-07-22T23:18:27.889Z,463
2018-07-22T23:19:34.819Z,463
2018-07-22T23:20:42.033Z,464
2018-07-22T23:21:49.244Z,464
2018-07-22T23:22:56.452Z,464
2018-07-22T23:24:03.667Z,464
2018-07-22T23:25:10.877Z,465
2018-07-22T23:26:18.091Z,465
2018-07-22T23:27:25.300Z,465
2018-07-22T23:28:32.514Z,465
2018-07-22T23:29:39.460Z,465
2018-07-22T23:30:46.671Z,466
2018-07-22T23:31:53.890Z,466
2018-07-22T23:33:01.098Z,465
2018-07-22T23:34:08.337Z,466
2018-07-22T23:35:15.550Z,466
2018-07-22T23:36:22.760Z,466
2018-07-22T23:37:29.970Z,466
2018-07-22T23:38:37.185Z,466
2018-07-22T23:39:44.396Z,467
2018-07-22T23:40:51.606Z,467
2018-07-22T23:41:58.817Z,467
2018-07-22T23:43:06.030Z,467
2018-07-22T23:44:13.240Z,467
2018-07-22T23:45:20.451Z,468
2018-07-22T23:46:27.662Z,468
2018-07-22T23:47:34.876Z,467
2018-07-22T23:48:42.086Z,468
2018-07-22T23:49:49.300Z,468
2018-07-22T23:50:56.511Z,468
2018-07-22T23:52:03.721Z,468
2018-07-22T23:53:10.933Z,468
2018-07-22T23:54:18.145Z,469
2018-07-22T23:55:25.358Z,469
2018-07-22T23:56:32.580Z,469
2018-07-22T23:57:39.527Z,469
2018-07-22T23:58:46.740Z,469
2018-07-22T23:59:53.952Z,470
